sensor_id;sensor_type;location;lat;lon;timestamp;pressure;altitude;pressure_sealevel;temperature;humidity
40992;BME280;29633;49.168;9.848;2023-04-01T00:00:30;95431.28;;;11.89;68.53
40992;BME280;29633;49.168;9.848;2023-04-01T00:02:56;95433.06;;;11.89;68.51
40992;BME280;29633;49.168;9.848;2023-04-01T00:05:22;95432.72;;;11.92;68.60
40992;BME280;29633;49.168;9.848;2023-04-01T00:07:49;95430.28;;;11.90;68.57
40992;BME280;29633;49.168;9.848;2023-04-01T00:10:17;95435.34;;;11.92;68.33
40992;BME280;29633;49.168;9.848;2023-04-01T00:12:43;95421.72;;;11.90;68.46
40992;BME280;29633;49.168;9.848;2023-04-01T00:15:10;95421.72;;;11.90;68.47
40992;BME280;29633;49.168;9.848;2023-04-01T00:17:36;95421.38;;;11.93;68.46
40992;BME280;29633;49.168;9.848;2023-04-01T00:20:04;95420.22;;;11.95;68.44
40992;BME280;29633;49.168;9.848;2023-04-01T00:22:30;95441.50;;;11.99;68.19
40992;BME280;29633;49.168;9.848;2023-04-01T00:24:58;95430.13;;;12.00;68.10
40992;BME280;29633;49.168;9.848;2023-04-01T00:27:23;95431.09;;;11.99;68.41
40992;BME280;29633;49.168;9.848;2023-04-01T00:29:50;95419.09;;;11.98;68.31
40992;BME280;29633;49.168;9.848;2023-04-01T00:32:15;95418.28;;;11.97;68.16
40992;BME280;29633;49.168;9.848;2023-04-01T00:34:41;95422.69;;;11.97;68.34
40992;BME280;29633;49.168;9.848;2023-04-01T00:37:07;95424.28;;;11.98;68.10
40992;BME280;29633;49.168;9.848;2023-04-01T00:39:34;95421.03;;;11.96;68.55
40992;BME280;29633;49.168;9.848;2023-04-01T00:42:00;95429.47;;;11.98;68.17
40992;BME280;29633;49.168;9.848;2023-04-01T00:44:29;95432.06;;;11.98;68.32
40992;BME280;29633;49.168;9.848;2023-04-01T00:46:55;95428.69;;;11.97;68.25
40992;BME280;29633;49.168;9.848;2023-04-01T00:49:23;95431.59;;;11.94;68.22
40992;BME280;29633;49.168;9.848;2023-04-01T00:51:53;95430.94;;;11.92;68.40
40992;BME280;29633;49.168;9.848;2023-04-01T00:54:21;95438.75;;;11.92;68.42
40992;BME280;29633;49.168;9.848;2023-04-01T00:57:13;95428.50;;;11.91;68.34
40992;BME280;29633;49.168;9.848;2023-04-01T00:59:44;95432.59;;;11.93;68.43
40992;BME280;29633;49.168;9.848;2023-04-01T01:02:13;95430.81;;;11.94;68.32
40992;BME280;29633;49.168;9.848;2023-04-01T01:04:39;95432.25;;;11.96;68.39
40992;BME280;29633;49.168;9.848;2023-04-01T01:13:26;95429.31;;;11.99;68.15
40992;BME280;29633;49.168;9.848;2023-04-01T01:15:59;95432.88;;;11.98;68.23
40992;BME280;29633;49.168;9.848;2023-04-01T01:18:35;95418.28;;;11.97;68.18
40992;BME280;29633;49.168;9.848;2023-04-01T01:32:15;95424.63;;;11.95;68.28
40992;BME280;29633;49.168;9.848;2023-04-01T01:37:35;95418.59;;;11.94;68.24
40992;BME280;29633;49.168;9.848;2023-04-01T01:40:05;95413.59;;;11.93;68.43
40992;BME280;29633;49.168;9.848;2023-04-01T01:42:32;95412.63;;;11.94;68.40
40992;BME280;29633;49.168;9.848;2023-04-01T01:44:58;95407.44;;;11.94;68.05
40992;BME280;29633;49.168;9.848;2023-04-01T01:47:25;95408.22;;;11.94;68.47
40992;BME280;29633;49.168;9.848;2023-04-01T01:49:52;95412.44;;;11.95;68.28
40992;BME280;29633;49.168;9.848;2023-04-01T01:52:18;95412.28;;;11.97;68.28
40992;BME280;29633;49.168;9.848;2023-04-01T01:55:02;95411.97;;;12.00;68.12
40992;BME280;29633;49.168;9.848;2023-04-01T01:57:30;95418.78;;;12.01;68.03
40992;BME280;29633;49.168;9.848;2023-04-01T01:59:59;95420.03;;;12.05;68.13
40992;BME280;29633;49.168;9.848;2023-04-01T02:02:27;95421.69;;;12.06;68.26
40992;BME280;29633;49.168;9.848;2023-04-01T02:04:56;95415.50;;;12.07;68.06
40992;BME280;29633;49.168;9.848;2023-04-01T02:07:28;95420.03;;;12.05;68.06
40992;BME280;29633;49.168;9.848;2023-04-01T02:09:56;95423.63;;;12.04;68.12
40992;BME280;29633;49.168;9.848;2023-04-01T02:12:22;95421.38;;;12.01;68.20
40992;BME280;29633;49.168;9.848;2023-04-01T02:15:14;95415.84;;;11.96;68.16
40992;BME280;29633;49.168;9.848;2023-04-01T02:17:42;95411.00;;;11.93;68.36
40992;BME280;29633;49.168;9.848;2023-04-01T02:22:39;95413.59;;;11.93;68.40
40992;BME280;29633;49.168;9.848;2023-04-01T02:25:12;95408.22;;;11.94;68.32
40992;BME280;29633;49.168;9.848;2023-04-01T02:27:39;95416.66;;;11.96;68.19
40992;BME280;29633;49.168;9.848;2023-04-01T02:30:08;95408.22;;;11.94;68.14
40992;BME280;29633;49.168;9.848;2023-04-01T02:32:34;95417.00;;;11.93;68.35
40992;BME280;29633;49.168;9.848;2023-04-01T02:35:06;95410.81;;;11.94;68.28
40992;BME280;29633;49.168;9.848;2023-04-01T02:37:32;95415.22;;;11.94;68.20
40992;BME280;29633;49.168;9.848;2023-04-01T02:40:02;95420.56;;;11.92;68.34
40992;BME280;29633;49.168;9.848;2023-04-01T02:42:30;95412.94;;;11.91;68.38
40992;BME280;29633;49.168;9.848;2023-04-01T02:44:55;95424.13;;;11.91;68.24
40992;BME280;29633;49.168;9.848;2023-04-01T02:47:21;95425.28;;;11.89;68.27
40992;BME280;29633;49.168;9.848;2023-04-01T02:49:47;95426.91;;;11.90;68.30
40992;BME280;29633;49.168;9.848;2023-04-01T02:52:12;95423.31;;;11.91;68.19
40992;BME280;29633;49.168;9.848;2023-04-01T02:54:38;95419.91;;;11.90;68.27
40992;BME280;29633;49.168;9.848;2023-04-01T02:57:03;95417.97;;;11.92;68.27
40992;BME280;29633;49.168;9.848;2023-04-01T02:59:29;95425.75;;;11.92;68.34
40992;BME280;29633;49.168;9.848;2023-04-01T03:01:54;95428.50;;;11.91;68.50
40992;BME280;29633;49.168;9.848;2023-04-01T03:04:20;95421.72;;;11.90;68.57
40992;BME280;29633;49.168;9.848;2023-04-01T03:06:46;95431.09;;;11.91;68.61
40992;BME280;29633;49.168;9.848;2023-04-01T03:09:11;95416.66;;;11.88;68.32
40992;BME280;29633;49.168;9.848;2023-04-01T03:11:37;95411.63;;;11.87;68.39
40992;BME280;29633;49.168;9.848;2023-04-01T03:14:03;95411.97;;;11.83;68.58
40992;BME280;29633;49.168;9.848;2023-04-01T03:16:28;95411.66;;;11.78;68.44
40992;BME280;29633;49.168;9.848;2023-04-01T03:18:54;95412.78;;;11.76;68.67
40992;BME280;29633;49.168;9.848;2023-04-01T03:21:23;95412.13;;;11.74;68.56
40992;BME280;29633;49.168;9.848;2023-04-01T03:23:49;95410.69;;;11.71;68.64
40992;BME280;29633;49.168;9.848;2023-04-01T03:26:15;95410.31;;;11.66;68.88
40992;BME280;29633;49.168;9.848;2023-04-01T03:28:41;95416.19;;;11.60;69.13
40992;BME280;29633;49.168;9.848;2023-04-01T03:31:07;95405.47;;;11.55;69.20
40992;BME280;29633;49.168;9.848;2023-04-01T03:33:32;95404.97;;;11.52;69.13
40992;BME280;29633;49.168;9.848;2023-04-01T03:35:58;95411.13;;;11.51;68.93
40992;BME280;29633;49.168;9.848;2023-04-01T03:38:24;95408.72;;;11.49;68.94
40992;BME280;29633;49.168;9.848;2023-04-01T03:40:49;95402.84;;;11.47;68.94
40992;BME280;29633;49.168;9.848;2023-04-01T03:43:15;95402.03;;;11.47;68.88
40992;BME280;29633;49.168;9.848;2023-04-01T03:45:48;95411.78;;;11.45;69.11
40992;BME280;29633;49.168;9.848;2023-04-01T03:48:14;95412.41;;;11.47;69.12
40992;BME280;29633;49.168;9.848;2023-04-01T03:50:40;95410.00;;;11.45;69.05
40992;BME280;29633;49.168;9.848;2023-04-01T03:53:06;95420.72;;;11.42;69.17
40992;BME280;29633;49.168;9.848;2023-04-01T03:55:32;95414.84;;;11.40;69.06
40992;BME280;29633;49.168;9.848;2023-04-01T03:57:58;95414.22;;;11.38;69.06
40992;BME280;29633;49.168;9.848;2023-04-01T04:00:23;95420.38;;;11.37;69.18
40992;BME280;29633;49.168;9.848;2023-04-01T04:02:49;95401.56;;;11.35;68.97
40992;BME280;29633;49.168;9.848;2023-04-01T04:05:15;95405.13;;;11.34;69.26
40992;BME280;29633;49.168;9.848;2023-04-01T04:07:40;95408.38;;;11.36;69.03
40992;BME280;29633;49.168;9.848;2023-04-01T04:10:06;95408.22;;;11.38;69.08
40992;BME280;29633;49.168;9.848;2023-04-01T04:12:32;95407.41;;;11.37;69.07
40992;BME280;29633;49.168;9.848;2023-04-01T04:14:58;95417.97;;;11.35;69.00
40992;BME280;29633;49.168;9.848;2023-04-01T04:17:23;95409.50;;;11.33;69.04
40992;BME280;29633;49.168;9.848;2023-04-01T04:19:49;95412.91;;;11.34;69.09
40992;BME280;29633;49.168;9.848;2023-04-01T04:22:14;95409.19;;;11.36;68.88
40992;BME280;29633;49.168;9.848;2023-04-01T04:24:40;95422.00;;;11.38;69.12
40992;BME280;29633;49.168;9.848;2023-04-01T04:27:06;95414.84;;;11.40;68.98
40992;BME280;29633;49.168;9.848;2023-04-01T04:29:31;95427.81;;;11.40;68.97
40992;BME280;29633;49.168;9.848;2023-04-01T04:31:57;95424.59;;;11.38;69.09
40992;BME280;29633;49.168;9.848;2023-04-01T04:34:23;95409.19;;;11.36;69.13
40992;BME280;29633;49.168;9.848;2023-04-01T04:36:48;95419.56;;;11.36;69.16
40992;BME280;29633;49.168;9.848;2023-04-01T04:39:14;95419.41;;;11.38;68.98
40992;BME280;29633;49.168;9.848;2023-04-01T04:41:40;95424.59;;;11.38;68.98
40992;BME280;29633;49.168;9.848;2023-04-01T04:44:06;95418.44;;;11.39;69.12
40992;BME280;29633;49.168;9.848;2023-04-01T04:46:32;95420.22;;;11.39;69.15
40992;BME280;29633;49.168;9.848;2023-04-01T04:48:57;95411.44;;;11.40;69.05
40992;BME280;29633;49.168;9.848;2023-04-01T04:51:23;95424.13;;;11.43;69.03
40992;BME280;29633;49.168;9.848;2023-04-01T04:53:49;95415.19;;;11.45;68.67
40992;BME280;29633;49.168;9.848;2023-04-01T04:56:19;95419.56;;;11.45;68.99
40992;BME280;29633;49.168;9.848;2023-04-01T04:58:45;95422.03;;;11.46;68.91
40992;BME280;29633;49.168;9.848;2023-04-01T05:01:13;95414.88;;;11.48;68.94
40992;BME280;29633;49.168;9.848;2023-04-01T05:03:39;95416.66;;;11.48;68.66
40992;BME280;29633;49.168;9.848;2023-04-01T05:06:05;95424.63;;;11.46;68.93
40992;BME280;29633;49.168;9.848;2023-04-01T05:08:32;95412.25;;;11.40;69.10
40992;BME280;29633;49.168;9.848;2023-04-01T05:10:58;95410.00;;;11.37;69.10
40992;BME280;29633;49.168;9.848;2023-04-01T05:13:26;95412.09;;;11.33;69.05
40992;BME280;29633;49.168;9.848;2023-04-01T05:15:52;95415.03;;;11.30;69.19
40992;BME280;29633;49.168;9.848;2023-04-01T05:18:17;95412.75;;;11.27;69.10
40992;BME280;29633;49.168;9.848;2023-04-01T05:20:51;95411.13;;;11.26;69.23
40992;BME280;29633;49.168;9.848;2023-04-01T05:23:17;95414.53;;;11.27;69.25
40992;BME280;29633;49.168;9.848;2023-04-01T05:25:43;95420.53;;;11.27;69.18
40992;BME280;29633;49.168;9.848;2023-04-01T05:28:10;95424.75;;;11.28;69.27
40992;BME280;29633;49.168;9.848;2023-04-01T05:30:36;95413.56;;;11.28;68.96
40992;BME280;29633;49.168;9.848;2023-04-01T05:33:02;95411.63;;;11.30;69.06
40992;BME280;29633;49.168;9.848;2023-04-01T05:35:27;95413.25;;;11.31;69.01
40992;BME280;29633;49.168;9.848;2023-04-01T05:37:53;95417.47;;;11.32;69.23
40992;BME280;29633;49.168;9.848;2023-04-01T05:40:19;95416.66;;;11.31;69.25
40992;BME280;29633;49.168;9.848;2023-04-01T05:42:44;95419.88;;;11.33;69.21
40992;BME280;29633;49.168;9.848;2023-04-01T05:45:10;95426.03;;;11.32;69.23
40992;BME280;29633;49.168;9.848;2023-04-01T05:47:36;95423.28;;;11.34;69.06
40992;BME280;29633;49.168;9.848;2023-04-01T05:50:01;95423.16;;;11.35;69.09
40992;BME280;29633;49.168;9.848;2023-04-01T05:52:27;95424.28;;;11.41;68.94
40992;BME280;29633;49.168;9.848;2023-04-01T05:54:53;95421.19;;;11.46;68.95
40992;BME280;29633;49.168;9.848;2023-04-01T05:57:18;95420.22;;;11.47;68.95
40992;BME280;29633;49.168;9.848;2023-04-01T05:59:44;95417.47;;;11.48;68.96
40992;BME280;29633;49.168;9.848;2023-04-01T06:02:13;95417.63;;;11.47;68.92
40992;BME280;29633;49.168;9.848;2023-04-01T06:04:41;95408.69;;;11.41;68.90
40992;BME280;29633;49.168;9.848;2023-04-01T06:07:14;95410.66;;;11.39;69.02
40992;BME280;29633;49.168;9.848;2023-04-01T06:09:40;95404.31;;;11.42;69.17
40992;BME280;29633;49.168;9.848;2023-04-01T06:12:22;95407.75;;;11.42;68.98
40992;BME280;29633;49.168;9.848;2023-04-01T06:15:20;95410.97;;;11.44;69.17
40992;BME280;29633;49.168;9.848;2023-04-01T06:23:55;95411.78;;;11.53;68.78
40992;BME280;29633;49.168;9.848;2023-04-01T06:34:42;95416.66;;;11.48;69.03
40992;BME280;29633;49.168;9.848;2023-04-01T06:42:41;95395.41;;;11.52;69.16
40992;BME280;29633;49.168;9.848;2023-04-01T06:50:44;95391.81;;;11.61;68.95
40992;BME280;29633;49.168;9.848;2023-04-01T06:53:35;95378.53;;;11.64;68.82
40992;BME280;29633;49.168;9.848;2023-04-01T06:56:09;95393.13;;;11.65;69.04
40992;BME280;29633;49.168;9.848;2023-04-01T06:58:54;95393.13;;;11.65;68.72
40992;BME280;29633;49.168;9.848;2023-04-01T07:01:25;95404.31;;;11.66;69.21
40992;BME280;29633;49.168;9.848;2023-04-01T07:04:10;95402.69;;;11.65;69.01
40992;BME280;29633;49.168;9.848;2023-04-01T07:06:43;95403.19;;;11.68;69.08
40992;BME280;29633;49.168;9.848;2023-04-01T07:09:24;95395.25;;;11.70;69.23
40992;BME280;29633;49.168;9.848;2023-04-01T07:11:53;95398.19;;;11.75;69.08
40992;BME280;29633;49.168;9.848;2023-04-01T07:19:42;95399.66;;;11.77;69.07
40992;BME280;29633;49.168;9.848;2023-04-01T07:24:48;95416.03;;;11.78;69.26
40992;BME280;29633;49.168;9.848;2023-04-01T07:27:15;95415.38;;;11.76;69.41
40992;BME280;29633;49.168;9.848;2023-04-01T07:29:41;95421.56;;;11.75;69.39
40992;BME280;29633;49.168;9.848;2023-04-01T07:32:27;95401.75;;;11.74;69.43
40992;BME280;29633;49.168;9.848;2023-04-01T07:41:07;95408.91;;;11.72;69.73
40992;BME280;29633;49.168;9.848;2023-04-01T07:44:00;95414.88;;;11.72;69.56
40992;BME280;29633;49.168;9.848;2023-04-01T07:46:53;95410.19;;;11.76;69.54
40992;BME280;29633;49.168;9.848;2023-04-01T07:49:27;95409.06;;;11.78;69.42
40992;BME280;29633;49.168;9.848;2023-04-01T07:52:06;95412.97;;;11.82;69.50
40992;BME280;29633;49.168;9.848;2023-04-01T07:54:56;95428.34;;;11.84;69.50
40992;BME280;29633;49.168;9.848;2023-04-01T07:57:49;95418.94;;;11.83;69.65
40992;BME280;29633;49.168;9.848;2023-04-01T08:05:49;95417.31;;;11.90;69.68
40992;BME280;29633;49.168;9.848;2023-04-01T08:08:41;95417.81;;;11.86;69.86
40992;BME280;29633;49.168;9.848;2023-04-01T08:14:27;95432.72;;;11.83;70.00
40992;BME280;29633;49.168;9.848;2023-04-01T08:19:35;95424.66;;;11.78;70.15
40992;BME280;29633;49.168;9.848;2023-04-01T08:22:09;95424.31;;;11.81;70.02
40992;BME280;29633;49.168;9.848;2023-04-01T08:24:49;95437.09;;;11.83;70.29
40992;BME280;29633;49.168;9.848;2023-04-01T08:27:23;95442.31;;;11.83;70.08
40992;BME280;29633;49.168;9.848;2023-04-01T08:30:04;95439.22;;;11.79;69.96
40992;BME280;29633;49.168;9.848;2023-04-01T08:32:39;95444.75;;;11.76;70.07
40992;BME280;29633;49.168;9.848;2023-04-01T08:35:37;95441.84;;;11.71;70.27
40992;BME280;29633;49.168;9.848;2023-04-01T08:38:20;95432.41;;;11.70;70.18
40992;BME280;29633;49.168;9.848;2023-04-01T08:40:59;95429.94;;;11.69;69.82
40992;BME280;29633;49.168;9.848;2023-04-01T08:49:08;95432.72;;;11.67;70.22
40992;BME280;29633;49.168;9.848;2023-04-01T08:57:35;95433.34;;;11.69;70.10
40992;BME280;29633;49.168;9.848;2023-04-01T09:00:31;95441.34;;;11.76;70.12
40992;BME280;29633;49.168;9.848;2023-04-01T09:08:53;95448.81;;;11.79;70.12
40992;BME280;29633;49.168;9.848;2023-04-01T09:17:47;95453.34;;;11.85;70.17
40992;BME280;29633;49.168;9.848;2023-04-01T09:36:38;95449.47;;;11.97;70.53
40992;BME280;29633;49.168;9.848;2023-04-01T09:42:15;95454.97;;;12.02;70.37
40992;BME280;29633;49.168;9.848;2023-04-01T09:50:24;95448.66;;;11.97;70.42
40992;BME280;29633;49.168;9.848;2023-04-01T09:58:41;95442.50;;;11.90;70.68
40992;BME280;29633;49.168;9.848;2023-04-01T10:10:25;95452.88;;;11.90;70.48
40992;BME280;29633;49.168;9.848;2023-04-01T10:24:31;95463.56;;;11.95;70.71
40992;BME280;29633;49.168;9.848;2023-04-01T10:27:12;95455.63;;;11.96;70.69
40992;BME280;29633;49.168;9.848;2023-04-01T10:30:20;95453.84;;;11.97;70.83
40992;BME280;29633;49.168;9.848;2023-04-01T10:49:41;95452.84;;;11.98;71.11
40992;BME280;29633;49.168;9.848;2023-04-01T10:54:47;95455.13;;;11.93;71.18
40992;BME280;29633;49.168;9.848;2023-04-01T11:00:13;95452.38;;;11.86;71.55
40992;BME280;29633;49.168;9.848;2023-04-01T11:13:44;95451.06;;;11.98;71.29
40992;BME280;29633;49.168;9.848;2023-04-01T11:16:36;95458.22;;;12.04;71.33
40992;BME280;29633;49.168;9.848;2023-04-01T11:19:33;95455.78;;;12.11;71.02
40992;BME280;29633;49.168;9.848;2023-04-01T11:28:26;95466.31;;;12.17;71.38
40992;BME280;29633;49.168;9.848;2023-04-01T11:33:51;95480.44;;;12.15;71.43
40992;BME280;29633;49.168;9.848;2023-04-01T11:39:46;95468.44;;;12.14;71.51
40992;BME280;29633;49.168;9.848;2023-04-01T11:42:40;95476.69;;;12.17;71.45
40992;BME280;29633;49.168;9.848;2023-04-01T11:45:35;95480.25;;;12.16;71.41
40992;BME280;29633;49.168;9.848;2023-04-01T11:50:50;95484.97;;;12.13;71.56
40992;BME280;29633;49.168;9.848;2023-04-01T11:53:41;95489.34;;;12.12;71.72
40992;BME280;29633;49.168;9.848;2023-04-01T11:56:14;95489.34;;;12.12;71.62
40992;BME280;29633;49.168;9.848;2023-04-01T12:01:58;95489.22;;;12.14;71.89
40992;BME280;29633;49.168;9.848;2023-04-01T12:04:54;95483.03;;;12.15;71.69
40992;BME280;29633;49.168;9.848;2023-04-01T12:10:34;95489.06;;;12.15;71.67
40992;BME280;29633;49.168;9.848;2023-04-01T12:21:26;95506.91;;;12.18;71.69
40992;BME280;29633;49.168;9.848;2023-04-01T12:27:19;95497.97;;;12.21;71.65
40992;BME280;29633;49.168;9.848;2023-04-01T12:30:21;95503.16;;;12.21;71.77
40992;BME280;29633;49.168;9.848;2023-04-01T12:33:25;95508.03;;;12.24;71.63
40992;BME280;29633;49.168;9.848;2023-04-01T12:41:54;95505.13;;;12.19;71.89
40992;BME280;29633;49.168;9.848;2023-04-01T12:54:16;95512.25;;;12.17;71.93
40992;BME280;29633;49.168;9.848;2023-04-01T13:08:17;95529.16;;;12.21;71.97
40992;BME280;29633;49.168;9.848;2023-04-01T13:13:45;95519.72;;;12.20;72.23
40992;BME280;29633;49.168;9.848;2023-04-01T13:16:24;95513.06;;;12.17;72.14
40992;BME280;29633;49.168;9.848;2023-04-01T13:19:08;95518.28;;;12.17;72.29
40992;BME280;29633;49.168;9.848;2023-04-01T13:21:58;95523.31;;;12.19;72.30
40992;BME280;29633;49.168;9.848;2023-04-01T13:27:18;95526.53;;;12.21;72.18
40992;BME280;29633;49.168;9.848;2023-04-01T13:32:47;95533.69;;;12.27;72.15
40992;BME280;29633;49.168;9.848;2023-04-01T13:35:27;95522.94;;;12.30;71.99
40992;BME280;29633;49.168;9.848;2023-04-01T13:41:22;95533.03;;;12.33;72.04
40992;BME280;29633;49.168;9.848;2023-04-01T13:43:57;95524.44;;;12.32;72.38
40992;BME280;29633;49.168;9.848;2023-04-01T13:46:54;95532.22;;;12.32;72.17
40992;BME280;29633;49.168;9.848;2023-04-01T13:57:43;95546.03;;;12.33;72.09
40992;BME280;29633;49.168;9.848;2023-04-01T14:10:54;95561.94;;;12.30;72.21
40992;BME280;29633;49.168;9.848;2023-04-01T14:13:33;95548.94;;;12.30;72.23
40992;BME280;29633;49.168;9.848;2023-04-01T14:30:02;95559.66;;;12.27;72.27
40992;BME280;29633;49.168;9.848;2023-04-01T14:32:49;95553.34;;;12.29;72.24
40992;BME280;29633;49.168;9.848;2023-04-01T14:35:25;95559.50;;;12.28;72.18
40992;BME280;29633;49.168;9.848;2023-04-01T14:43:46;95563.41;;;12.32;72.07
40992;BME280;29633;49.168;9.848;2023-04-01T14:46:27;95565.34;;;12.30;72.32
40992;BME280;29633;49.168;9.848;2023-04-01T14:49:24;95558.84;;;12.26;72.05
40992;BME280;29633;49.168;9.848;2023-04-01T14:51:48;95560.66;;;12.26;72.38
40992;BME280;29633;49.168;9.848;2023-04-01T14:54:38;95566.00;;;12.24;72.16
40992;BME280;29633;49.168;9.848;2023-04-01T14:57:25;95585.63;;;12.27;72.13
40992;BME280;29633;49.168;9.848;2023-04-01T15:00:13;95575.25;;;12.27;72.27
40992;BME280;29633;49.168;9.848;2023-04-01T15:02:58;95573.94;;;12.31;72.10
40992;BME280;29633;49.168;9.848;2023-04-01T15:05:45;95580.59;;;12.33;71.90
40992;BME280;29633;49.168;9.848;2023-04-01T15:08:33;95588.59;;;12.32;72.15
40992;BME280;29633;49.168;9.848;2023-04-01T15:16:41;95585.00;;;12.33;71.85
40992;BME280;29633;49.168;9.848;2023-04-01T15:27:49;95588.59;;;12.40;71.68
40992;BME280;29633;49.168;9.848;2023-04-01T15:30:18;95595.22;;;12.43;71.81
40992;BME280;29633;49.168;9.848;2023-04-01T15:33:06;95592.78;;;12.41;71.67
40992;BME280;29633;49.168;9.848;2023-04-01T15:38:36;95593.94;;;12.39;71.70
40992;BME280;29633;49.168;9.848;2023-04-01T15:41:43;95595.72;;;12.38;71.79
40992;BME280;29633;49.168;9.848;2023-04-01T15:46:58;95614.25;;;12.51;71.62
40992;BME280;29633;49.168;9.848;2023-04-01T15:49:38;95602.22;;;12.50;71.15
40992;BME280;29633;49.168;9.848;2023-04-01T15:52:22;95612.13;;;12.47;71.66
40992;BME280;29633;49.168;9.848;2023-04-01T15:55:21;95599.13;;;12.47;71.44
40992;BME280;29633;49.168;9.848;2023-04-01T16:01:13;95612.75;;;12.49;71.66
40992;BME280;29633;49.168;9.848;2023-04-01T16:06:24;95606.75;;;12.48;71.47
40992;BME280;29633;49.168;9.848;2023-04-01T16:12:03;95602.56;;;12.47;71.68
40992;BME280;29633;49.168;9.848;2023-04-01T16:22:38;95620.91;;;12.46;71.56
40992;BME280;29633;49.168;9.848;2023-04-01T16:25:40;95624.31;;;12.46;71.73
40992;BME280;29633;49.168;9.848;2023-04-01T16:28:28;95620.41;;;12.50;71.62
40992;BME280;29633;49.168;9.848;2023-04-01T16:33:47;95617.47;;;12.45;71.59
40992;BME280;29633;49.168;9.848;2023-04-01T16:39:09;95628.53;;;12.47;71.65
40992;BME280;29633;49.168;9.848;2023-04-01T16:41:46;95626.44;;;12.51;71.46
40992;BME280;29633;49.168;9.848;2023-04-01T16:44:25;95631.13;;;12.55;71.55
40992;BME280;29633;49.168;9.848;2023-04-01T16:47:08;95637.94;;;12.56;71.50
40992;BME280;29633;49.168;9.848;2023-04-01T16:49:50;95638.75;;;12.57;71.44
40992;BME280;29633;49.168;9.848;2023-04-01T16:55:20;95636.81;;;12.51;71.54
40992;BME280;29633;49.168;9.848;2023-04-01T16:57:52;95642.66;;;12.53;71.51
40992;BME280;29633;49.168;9.848;2023-04-01T17:00:40;95637.47;;;12.53;71.24
40992;BME280;29633;49.168;9.848;2023-04-01T17:08:46;95646.22;;;12.52;71.54
40992;BME280;29633;49.168;9.848;2023-04-01T17:11:37;95648.69;;;12.53;71.38
40992;BME280;29633;49.168;9.848;2023-04-01T17:14:25;95647.38;;;12.57;71.43
40992;BME280;29633;49.168;9.848;2023-04-01T17:17:11;95655.00;;;12.59;71.21
40992;BME280;29633;49.168;9.848;2023-04-01T17:25:09;95660.38;;;12.65;71.24
40992;BME280;29633;49.168;9.848;2023-04-01T17:31:20;95662.47;;;12.70;71.10
40992;BME280;29633;49.168;9.848;2023-04-01T17:42:30;95672.06;;;12.77;70.95
40992;BME280;29633;49.168;9.848;2023-04-01T17:45:04;95682.66;;;12.76;71.11
40992;BME280;29633;49.168;9.848;2023-04-01T17:56:09;95689.63;;;12.67;71.07
40992;BME280;29633;49.168;9.848;2023-04-01T18:01:20;95694.19;;;12.65;71.02
40992;BME280;29633;49.168;9.848;2023-04-01T18:09:57;95704.91;;;12.78;70.99
40992;BME280;29633;49.168;9.848;2023-04-01T18:20:33;95715.94;;;12.89;70.88
40992;BME280;29633;49.168;9.848;2023-04-01T18:25:41;95726.84;;;12.92;70.75
40992;BME280;29633;49.168;9.848;2023-04-01T18:31:15;95739.69;;;12.94;70.69
40992;BME280;29633;49.168;9.848;2023-04-01T18:33:50;95730.59;;;12.98;70.59
40992;BME280;29633;49.168;9.848;2023-04-01T18:42:19;95750.44;;;12.91;70.71
40992;BME280;29633;49.168;9.848;2023-04-01T18:44:52;95753.38;;;12.88;70.77
40992;BME280;29633;49.168;9.848;2023-04-01T18:47:42;95758.22;;;12.82;70.76
40992;BME280;29633;49.168;9.848;2023-04-01T18:52:46;95774.47;;;12.76;70.88
40992;BME280;29633;49.168;9.848;2023-04-01T18:55:22;95766.97;;;12.73;70.87
40992;BME280;29633;49.168;9.848;2023-04-01T18:57:55;95780.31;;;12.70;71.13
40992;BME280;29633;49.168;9.848;2023-04-01T19:00:35;95776.06;;;12.61;71.17
40992;BME280;29633;49.168;9.848;2023-04-01T19:03:11;95781.28;;;12.61;71.06
40992;BME280;29633;49.168;9.848;2023-04-01T19:05:42;95776.72;;;12.63;71.19
40992;BME280;29633;49.168;9.848;2023-04-01T19:13:32;95794.75;;;12.57;71.10
40992;BME280;29633;49.168;9.848;2023-04-01T19:21:43;95796.50;;;12.48;71.17
40992;BME280;29633;49.168;9.848;2023-04-01T19:24:24;95803.66;;;12.46;71.06
40992;BME280;29633;49.168;9.848;2023-04-01T19:27:26;95803.66;;;12.46;71.07
40992;BME280;29633;49.168;9.848;2023-04-01T19:33:22;95793.75;;;12.50;71.17
40992;BME280;29633;49.168;9.848;2023-04-01T19:35:55;95803.00;;;12.52;70.58
40992;BME280;29633;49.168;9.848;2023-04-01T19:38:31;95803.19;;;12.51;70.90
40992;BME280;29633;49.168;9.848;2023-04-01T19:43:42;95802.88;;;12.54;70.97
40992;BME280;29633;49.168;9.848;2023-04-01T19:49:03;95803.19;;;12.59;70.89
40992;BME280;29633;49.168;9.848;2023-04-01T19:59:22;95811.47;;;12.54;70.88
40992;BME280;29633;49.168;9.848;2023-04-01T20:01:53;95815.88;;;12.54;70.77
40992;BME280;29633;49.168;9.848;2023-04-01T20:04:32;95811.47;;;12.54;70.96
40992;BME280;29633;49.168;9.848;2023-04-01T20:15:02;95819.97;;;12.64;70.49
40992;BME280;29633;49.168;9.848;2023-04-01T20:17:42;95825.16;;;12.64;70.68
40992;BME280;29633;49.168;9.848;2023-04-01T20:28:11;95835.59;;;12.72;70.35
40992;BME280;29633;49.168;9.848;2023-04-01T20:31:10;95836.06;;;12.68;70.50
40992;BME280;29633;49.168;9.848;2023-04-01T20:42:28;95845.78;;;12.58;70.50
40992;BME280;29633;49.168;9.848;2023-04-01T20:48:22;95852.44;;;12.60;70.61
40992;BME280;29633;49.168;9.848;2023-04-01T20:51:03;95856.81;;;12.60;70.54
40992;BME280;29633;49.168;9.848;2023-04-01T20:53:43;95862.84;;;12.60;70.54
40992;BME280;29633;49.168;9.848;2023-04-01T20:59:24;95869.72;;;12.69;70.48
40992;BME280;29633;49.168;9.848;2023-04-01T21:07:41;95893.28;;;12.76;70.22
40992;BME280;29633;49.168;9.848;2023-04-01T21:10:25;95883.38;;;12.79;70.25
40992;BME280;29633;49.168;9.848;2023-04-01T21:24:45;95901.09;;;12.76;70.47
40992;BME280;29633;49.168;9.848;2023-04-01T21:27:42;95896.22;;;12.73;70.42
40992;BME280;29633;49.168;9.848;2023-04-01T21:30:26;95902.19;;;12.73;70.34